sensor_id;sensor_type;location;lat;lon;timestamp;temperature;humidity
68485;DHT22;55472;50.060;21.960;2022-11-20T00:01:14;-5.80;96.10
68485;DHT22;55472;50.060;21.960;2022-11-20T00:03:47;-5.70;96.00
68485;DHT22;55472;50.060;21.960;2022-11-20T00:06:16;-5.70;96.10
68485;DHT22;55472;50.060;21.960;2022-11-20T00:08:43;-5.70;96.40
68485;DHT22;55472;50.060;21.960;2022-11-20T00:11:12;-5.70;96.50
68485;DHT22;55472;50.060;21.960;2022-11-20T00:13:39;-5.60;96.70
68485;DHT22;55472;50.060;21.960;2022-11-20T00:16:07;-5.60;96.80
68485;DHT22;55472;50.060;21.960;2022-11-20T00:18:35;-5.60;96.80
68485;DHT22;55472;50.060;21.960;2022-11-20T00:21:07;-5.60;96.80
68485;DHT22;55472;50.060;21.960;2022-11-20T00:23:36;-5.60;96.70
68485;DHT22;55472;50.060;21.960;2022-11-20T00:26:07;-5.50;96.60
68485;DHT22;55472;50.060;21.960;2022-11-20T00:28:35;-5.50;96.00
68485;DHT22;55472;50.060;21.960;2022-11-20T00:31:09;-5.50;95.50
68485;DHT22;55472;50.060;21.960;2022-11-20T00:33:37;-5.50;95.30
68485;DHT22;55472;50.060;21.960;2022-11-20T00:36:12;-5.60;94.80
68485;DHT22;55472;50.060;21.960;2022-11-20T00:38:40;-5.60;94.40
68485;DHT22;55472;50.060;21.960;2022-11-20T00:41:08;-5.60;93.90
68485;DHT22;55472;50.060;21.960;2022-11-20T00:43:36;-5.60;93.80
68485;DHT22;55472;50.060;21.960;2022-11-20T00:46:05;-5.60;93.80
68485;DHT22;55472;50.060;21.960;2022-11-20T00:48:36;-5.60;93.80
68485;DHT22;55472;50.060;21.960;2022-11-20T00:51:02;-5.60;94.00
68485;DHT22;55472;50.060;21.960;2022-11-20T00:53:28;-5.60;93.90
68485;DHT22;55472;50.060;21.960;2022-11-20T00:55:55;-5.60;93.90
68485;DHT22;55472;50.060;21.960;2022-11-20T00:58:29;-5.60;93.60
68485;DHT22;55472;50.060;21.960;2022-11-20T01:01:05;-5.60;93.40
68485;DHT22;55472;50.060;21.960;2022-11-20T01:03:34;-5.60;92.60
68485;DHT22;55472;50.060;21.960;2022-11-20T01:06:07;-5.60;92.50
68485;DHT22;55472;50.060;21.960;2022-11-20T01:08:36;-5.70;91.40
68485;DHT22;55472;50.060;21.960;2022-11-20T01:11:09;-5.80;91.10
68485;DHT22;55472;50.060;21.960;2022-11-20T01:13:38;-5.80;91.00
68485;DHT22;55472;50.060;21.960;2022-11-20T01:18:32;-5.90;91.10
68485;DHT22;55472;50.060;21.960;2022-11-20T01:21:07;-5.90;90.90
68485;DHT22;55472;50.060;21.960;2022-11-20T01:23:35;-5.90;91.10
68485;DHT22;55472;50.060;21.960;2022-11-20T01:26:05;-5.90;91.30
68485;DHT22;55472;50.060;21.960;2022-11-20T01:28:33;-5.90;91.20
68485;DHT22;55472;50.060;21.960;2022-11-20T01:31:00;-5.90;91.10
68485;DHT22;55472;50.060;21.960;2022-11-20T01:33:27;-6.00;90.90
68485;DHT22;55472;50.060;21.960;2022-11-20T01:35:53;-6.00;91.00
68485;DHT22;55472;50.060;21.960;2022-11-20T01:38:30;-6.00;91.20
68485;DHT22;55472;50.060;21.960;2022-11-20T01:40:56;-6.00;91.30
68485;DHT22;55472;50.060;21.960;2022-11-20T01:43:22;-6.00;91.30
68485;DHT22;55472;50.060;21.960;2022-11-20T01:45:59;-6.00;91.30
68485;DHT22;55472;50.060;21.960;2022-11-20T01:48:38;-6.00;91.00
68485;DHT22;55472;50.060;21.960;2022-11-20T01:51:33;-6.00;90.90
68485;DHT22;55472;50.060;21.960;2022-11-20T01:54:04;-6.10;90.80
68485;DHT22;55472;50.060;21.960;2022-11-20T01:56:36;-6.10;90.50
68485;DHT22;55472;50.060;21.960;2022-11-20T01:59:05;-6.20;90.20
68485;DHT22;55472;50.060;21.960;2022-11-20T02:01:33;-6.20;90.30
68485;DHT22;55472;50.060;21.960;2022-11-20T02:04:00;-6.20;90.40
68485;DHT22;55472;50.060;21.960;2022-11-20T02:06:29;-6.20;90.60
68485;DHT22;55472;50.060;21.960;2022-11-20T02:08:57;-6.20;90.30
68485;DHT22;55472;50.060;21.960;2022-11-20T02:11:23;-6.20;90.20
68485;DHT22;55472;50.060;21.960;2022-11-20T02:13:50;-6.30;90.40
68485;DHT22;55472;50.060;21.960;2022-11-20T02:16:27;-6.20;90.50
68485;DHT22;55472;50.060;21.960;2022-11-20T02:18:57;-6.30;90.50
68485;DHT22;55472;50.060;21.960;2022-11-20T02:21:35;-6.30;90.70
68485;DHT22;55472;50.060;21.960;2022-11-20T02:29:34;-6.30;90.90
68485;DHT22;55472;50.060;21.960;2022-11-20T02:32:02;-6.20;90.80
68485;DHT22;55472;50.060;21.960;2022-11-20T02:34:29;-6.20;90.60
68485;DHT22;55472;50.060;21.960;2022-11-20T02:36:55;-6.30;90.60
68485;DHT22;55472;50.060;21.960;2022-11-20T02:39:24;-6.30;90.60
68485;DHT22;55472;50.060;21.960;2022-11-20T02:41:53;-6.30;90.50
68485;DHT22;55472;50.060;21.960;2022-11-20T02:44:20;-6.30;90.30
68485;DHT22;55472;50.060;21.960;2022-11-20T02:46:46;-6.30;90.20
68485;DHT22;55472;50.060;21.960;2022-11-20T02:49:12;-6.30;90.00
68485;DHT22;55472;50.060;21.960;2022-11-20T02:51:38;-6.30;89.90
68485;DHT22;55472;50.060;21.960;2022-11-20T02:54:04;-6.40;89.80
68485;DHT22;55472;50.060;21.960;2022-11-20T02:56:30;-6.40;89.50
68485;DHT22;55472;50.060;21.960;2022-11-20T02:58:57;-6.40;89.30
68485;DHT22;55472;50.060;21.960;2022-11-20T03:01:22;-6.50;89.50
68485;DHT22;55472;50.060;21.960;2022-11-20T03:03:49;-6.50;89.90
68485;DHT22;55472;50.060;21.960;2022-11-20T03:06:16;-6.50;90.30
68485;DHT22;55472;50.060;21.960;2022-11-20T03:08:42;-6.50;90.80
68485;DHT22;55472;50.060;21.960;2022-11-20T03:11:08;-6.50;90.80
68485;DHT22;55472;50.060;21.960;2022-11-20T03:13:35;-6.50;90.90
68485;DHT22;55472;50.060;21.960;2022-11-20T03:16:13;-6.50;91.00
68485;DHT22;55472;50.060;21.960;2022-11-20T03:18:41;-6.50;91.00
68485;DHT22;55472;50.060;21.960;2022-11-20T03:21:09;-6.60;91.10
68485;DHT22;55472;50.060;21.960;2022-11-20T03:23:36;-6.60;91.10
68485;DHT22;55472;50.060;21.960;2022-11-20T03:26:15;-6.60;91.10
68485;DHT22;55472;50.060;21.960;2022-11-20T03:28:53;-6.60;90.80
68485;DHT22;55472;50.060;21.960;2022-11-20T03:31:29;-6.60;90.80
68485;DHT22;55472;50.060;21.960;2022-11-20T03:33:57;-6.60;91.00
68485;DHT22;55472;50.060;21.960;2022-11-20T03:36:24;-6.60;91.00
68485;DHT22;55472;50.060;21.960;2022-11-20T03:38:52;-6.60;91.00
68485;DHT22;55472;50.060;21.960;2022-11-20T03:41:27;-6.60;91.10
68485;DHT22;55472;50.060;21.960;2022-11-20T03:44:00;-6.60;91.20
68485;DHT22;55472;50.060;21.960;2022-11-20T03:46:28;-6.70;91.30
68485;DHT22;55472;50.060;21.960;2022-11-20T03:48:54;-6.70;91.30
68485;DHT22;55472;50.060;21.960;2022-11-20T03:51:26;-6.70;91.00
68485;DHT22;55472;50.060;21.960;2022-11-20T03:53:58;-6.70;90.90
68485;DHT22;55472;50.060;21.960;2022-11-20T03:56:27;-6.70;90.60
68485;DHT22;55472;50.060;21.960;2022-11-20T03:58:55;-6.70;90.80
68485;DHT22;55472;50.060;21.960;2022-11-20T04:01:32;-6.80;90.80
68485;DHT22;55472;50.060;21.960;2022-11-20T04:04:00;-6.80;90.50
68485;DHT22;55472;50.060;21.960;2022-11-20T04:06:30;-6.80;90.40
68485;DHT22;55472;50.060;21.960;2022-11-20T04:08:59;-6.80;90.30
68485;DHT22;55472;50.060;21.960;2022-11-20T04:11:27;-6.80;90.50
68485;DHT22;55472;50.060;21.960;2022-11-20T04:14:03;-6.80;90.50
68485;DHT22;55472;50.060;21.960;2022-11-20T04:16:32;-6.90;90.20
68485;DHT22;55472;50.060;21.960;2022-11-20T04:19:02;-6.90;90.20
68485;DHT22;55472;50.060;21.960;2022-11-20T04:21:29;-6.90;90.40
68485;DHT22;55472;50.060;21.960;2022-11-20T04:23:55;-6.90;90.30
68485;DHT22;55472;50.060;21.960;2022-11-20T04:31:19;-7.00;89.70
68485;DHT22;55472;50.060;21.960;2022-11-20T04:33:46;-7.00;89.70
68485;DHT22;55472;50.060;21.960;2022-11-20T04:36:15;-7.00;89.50
68485;DHT22;55472;50.060;21.960;2022-11-20T04:38:43;-7.10;89.70
68485;DHT22;55472;50.060;21.960;2022-11-20T04:41:15;-7.10;89.60
68485;DHT22;55472;50.060;21.960;2022-11-20T04:43:49;-7.20;89.50
68485;DHT22;55472;50.060;21.960;2022-11-20T04:46:18;-7.20;89.80
68485;DHT22;55472;50.060;21.960;2022-11-20T04:48:45;-7.20;89.80
68485;DHT22;55472;50.060;21.960;2022-11-20T04:51:12;-7.20;89.80
68485;DHT22;55472;50.060;21.960;2022-11-20T04:53:38;-7.20;89.60
68485;DHT22;55472;50.060;21.960;2022-11-20T04:56:06;-7.20;89.40
68485;DHT22;55472;50.060;21.960;2022-11-20T04:58:34;-7.30;89.40
68485;DHT22;55472;50.060;21.960;2022-11-20T05:01:14;-7.30;89.40
68485;DHT22;55472;50.060;21.960;2022-11-20T05:03:43;-7.30;89.60
68485;DHT22;55472;50.060;21.960;2022-11-20T05:06:12;-7.30;89.70
68485;DHT22;55472;50.060;21.960;2022-11-20T05:08:39;-7.30;89.60
68485;DHT22;55472;50.060;21.960;2022-11-20T06:37:55;-7.10;89.80
68485;DHT22;55472;50.060;21.960;2022-11-20T06:40:22;-7.10;90.10
68485;DHT22;55472;50.060;21.960;2022-11-20T06:42:47;-7.10;90.40
68485;DHT22;55472;50.060;21.960;2022-11-20T06:45:14;-7.00;90.80
68485;DHT22;55472;50.060;21.960;2022-11-20T06:47:39;-7.00;91.10
68485;DHT22;55472;50.060;21.960;2022-11-20T06:50:06;-6.90;91.60
68485;DHT22;55472;50.060;21.960;2022-11-20T06:52:32;-6.80;91.90
68485;DHT22;55472;50.060;21.960;2022-11-20T06:54:59;-6.70;92.00
68485;DHT22;55472;50.060;21.960;2022-11-20T07:29:17;-5.20;93.70
68485;DHT22;55472;50.060;21.960;2022-11-20T07:31:42;-5.20;93.80
68485;DHT22;55472;50.060;21.960;2022-11-20T07:34:09;-5.20;94.10
68485;DHT22;55472;50.060;21.960;2022-11-20T07:36:35;-5.10;94.50
68485;DHT22;55472;50.060;21.960;2022-11-20T07:39:01;-5.10;94.80
68485;DHT22;55472;50.060;21.960;2022-11-20T07:41:27;-5.00;94.90
68485;DHT22;55472;50.060;21.960;2022-11-20T07:43:53;-4.90;94.90
68485;DHT22;55472;50.060;21.960;2022-11-20T07:46:19;-4.90;95.00
68485;DHT22;55472;50.060;21.960;2022-11-20T07:48:45;-4.80;94.90
68485;DHT22;55472;50.060;21.960;2022-11-20T07:51:11;-4.80;95.10
68485;DHT22;55472;50.060;21.960;2022-11-20T07:53:37;-4.70;95.20
68485;DHT22;55472;50.060;21.960;2022-11-20T07:56:03;-4.70;95.30
68485;DHT22;55472;50.060;21.960;2022-11-20T07:58:29;-4.60;95.40
68485;DHT22;55472;50.060;21.960;2022-11-20T08:01:02;-4.50;95.40
68485;DHT22;55472;50.060;21.960;2022-11-20T08:03:34;-4.50;95.60
68485;DHT22;55472;50.060;21.960;2022-11-20T08:06:03;-4.40;95.70
68485;DHT22;55472;50.060;21.960;2022-11-20T08:08:30;-4.30;95.60
68485;DHT22;55472;50.060;21.960;2022-11-20T08:10:59;-4.30;95.50
68485;DHT22;55472;50.060;21.960;2022-11-20T08:13:44;-4.20;95.50
68485;DHT22;55472;50.060;21.960;2022-11-20T08:16:28;-4.20;95.50
68485;DHT22;55472;50.060;21.960;2022-11-20T08:18:55;-4.10;95.70
68485;DHT22;55472;50.060;21.960;2022-11-20T08:21:21;-4.00;95.50
68485;DHT22;55472;50.060;21.960;2022-11-20T08:23:47;-4.00;95.50
68485;DHT22;55472;50.060;21.960;2022-11-20T08:26:12;-3.90;95.60
68485;DHT22;55472;50.060;21.960;2022-11-20T08:28:39;-3.80;95.50
68485;DHT22;55472;50.060;21.960;2022-11-20T08:31:05;-3.80;95.30
68485;DHT22;55472;50.060;21.960;2022-11-20T08:33:31;-3.80;95.00
68485;DHT22;55472;50.060;21.960;2022-11-20T08:36:02;-3.70;94.90
68485;DHT22;55472;50.060;21.960;2022-11-20T08:38:30;-3.70;94.60
68485;DHT22;55472;50.060;21.960;2022-11-20T08:40:57;-3.70;94.70
68485;DHT22;55472;50.060;21.960;2022-11-20T08:43:52;-3.70;94.60
68485;DHT22;55472;50.060;21.960;2022-11-20T08:46:19;-3.70;94.40
68485;DHT22;55472;50.060;21.960;2022-11-20T08:48:45;-3.70;94.30
68485;DHT22;55472;50.060;21.960;2022-11-20T08:51:12;-3.70;93.90
68485;DHT22;55472;50.060;21.960;2022-11-20T08:53:39;-3.70;94.10
68485;DHT22;55472;50.060;21.960;2022-11-20T08:56:06;-3.60;94.20
68485;DHT22;55472;50.060;21.960;2022-11-20T08:58:32;-3.50;93.90
68485;DHT22;55472;50.060;21.960;2022-11-20T09:00:58;-3.50;94.30
68485;DHT22;55472;50.060;21.960;2022-11-20T09:03:24;-3.40;94.50
68485;DHT22;55472;50.060;21.960;2022-11-20T09:06:00;-3.20;94.40
68485;DHT22;55472;50.060;21.960;2022-11-20T09:08:28;-3.10;94.60
68485;DHT22;55472;50.060;21.960;2022-11-20T09:10:55;-3.00;93.90
68485;DHT22;55472;50.060;21.960;2022-11-20T09:13:23;-2.90;93.60
68485;DHT22;55472;50.060;21.960;2022-11-20T09:16:00;-2.80;93.30
68485;DHT22;55472;50.060;21.960;2022-11-20T09:18:28;-2.70;92.90
68485;DHT22;55472;50.060;21.960;2022-11-20T09:20:58;-2.60;92.30
68485;DHT22;55472;50.060;21.960;2022-11-20T09:23:25;-2.50;91.80
68485;DHT22;55472;50.060;21.960;2022-11-20T09:25:51;-2.50;90.90
68485;DHT22;55472;50.060;21.960;2022-11-20T09:28:18;-2.50;89.70
68485;DHT22;55472;50.060;21.960;2022-11-20T09:30:44;-2.50;90.30
68485;DHT22;55472;50.060;21.960;2022-11-20T09:33:10;-2.50;90.50
68485;DHT22;55472;50.060;21.960;2022-11-20T09:35:36;-2.40;90.50
68485;DHT22;55472;50.060;21.960;2022-11-20T09:38:06;-2.40;90.40
68485;DHT22;55472;50.060;21.960;2022-11-20T09:40:35;-2.40;90.40
68485;DHT22;55472;50.060;21.960;2022-11-20T09:46:17;-2.20;90.20
68485;DHT22;55472;50.060;21.960;2022-11-20T09:49:23;-2.10;89.90
68485;DHT22;55472;50.060;21.960;2022-11-20T09:55:14;-1.90;89.80
68485;DHT22;55472;50.060;21.960;2022-11-20T09:57:44;-1.80;89.30
68485;DHT22;55472;50.060;21.960;2022-11-20T10:00:13;-1.80;89.20
68485;DHT22;55472;50.060;21.960;2022-11-20T10:03:01;-1.70;89.60
68485;DHT22;55472;50.060;21.960;2022-11-20T10:05:47;-1.60;90.00
68485;DHT22;55472;50.060;21.960;2022-11-20T10:08:40;-1.40;89.90
68485;DHT22;55472;50.060;21.960;2022-11-20T10:11:20;-1.10;89.40
68485;DHT22;55472;50.060;21.960;2022-11-20T10:16:40;-0.90;87.60
68485;DHT22;55472;50.060;21.960;2022-11-20T10:19:40;-0.90;87.00
68485;DHT22;55472;50.060;21.960;2022-11-20T10:28:11;-0.80;86.50
68485;DHT22;55472;50.060;21.960;2022-11-20T10:31:07;-0.80;86.00
68485;DHT22;55472;50.060;21.960;2022-11-20T10:33:38;-0.70;86.60
68485;DHT22;55472;50.060;21.960;2022-11-20T10:36:19;-0.60;86.40
68485;DHT22;55472;50.060;21.960;2022-11-20T10:38:56;-0.50;86.30
68485;DHT22;55472;50.060;21.960;2022-11-20T10:41:32;-0.50;85.80
68485;DHT22;55472;50.060;21.960;2022-11-20T10:44:12;-0.40;85.20
68485;DHT22;55472;50.060;21.960;2022-11-20T10:47:03;-0.30;85.00
68485;DHT22;55472;50.060;21.960;2022-11-20T10:49:32;-0.20;84.20
68485;DHT22;55472;50.060;21.960;2022-11-20T10:55:11;-0.10;83.00
68485;DHT22;55472;50.060;21.960;2022-11-20T11:00:48;-0.10;83.60
68485;DHT22;55472;50.060;21.960;2022-11-20T11:03:26;0.10;83.60
68485;DHT22;55472;50.060;21.960;2022-11-20T11:06:08;0.40;84.30
68485;DHT22;55472;50.060;21.960;2022-11-20T11:08:40;0.90;83.90
68485;DHT22;55472;50.060;21.960;2022-11-20T11:11:33;1.20;81.30
68485;DHT22;55472;50.060;21.960;2022-11-20T11:14:13;1.40;78.10
68485;DHT22;55472;50.060;21.960;2022-11-20T11:16:52;1.70;77.60
68485;DHT22;55472;50.060;21.960;2022-11-20T11:19:18;1.90;78.00
68485;DHT22;55472;50.060;21.960;2022-11-20T11:21:50;2.20;76.10
68485;DHT22;55472;50.060;21.960;2022-11-20T11:24:23;2.40;75.20
68485;DHT22;55472;50.060;21.960;2022-11-20T11:26:55;2.70;75.40
68485;DHT22;55472;50.060;21.960;2022-11-20T11:29:22;3.00;74.00
68485;DHT22;55472;50.060;21.960;2022-11-20T11:31:48;3.50;73.30
68485;DHT22;55472;50.060;21.960;2022-11-20T11:34:16;3.60;69.90
68485;DHT22;55472;50.060;21.960;2022-11-20T11:36:55;3.90;72.20
68485;DHT22;55472;50.060;21.960;2022-11-20T11:39:22;4.00;69.70
68485;DHT22;55472;50.060;21.960;2022-11-20T11:41:49;4.30;69.50
68485;DHT22;55472;50.060;21.960;2022-11-20T11:44:30;4.50;69.00
68485;DHT22;55472;50.060;21.960;2022-11-20T11:47:24;4.60;68.30
68485;DHT22;55472;50.060;21.960;2022-11-20T11:53:13;5.30;65.80
68485;DHT22;55472;50.060;21.960;2022-11-20T11:56:08;5.50;64.50
68485;DHT22;55472;50.060;21.960;2022-11-20T12:01:31;5.60;63.80
68485;DHT22;55472;50.060;21.960;2022-11-20T12:04:17;5.40;64.30
68485;DHT22;55472;50.060;21.960;2022-11-20T12:07:00;5.20;63.80
68485;DHT22;55472;50.060;21.960;2022-11-20T12:09:41;5.10;64.00
68485;DHT22;55472;50.060;21.960;2022-11-20T12:12:13;4.80;64.50
68485;DHT22;55472;50.060;21.960;2022-11-20T12:14:46;4.60;64.80
68485;DHT22;55472;50.060;21.960;2022-11-20T12:17:15;4.40;65.40
68485;DHT22;55472;50.060;21.960;2022-11-20T12:19:41;4.20;65.60
68485;DHT22;55472;50.060;21.960;2022-11-20T12:22:29;4.00;66.60
68485;DHT22;55472;50.060;21.960;2022-11-20T12:28:19;3.60;68.40
68485;DHT22;55472;50.060;21.960;2022-11-20T12:39:26;2.90;71.60
68485;DHT22;55472;50.060;21.960;2022-11-20T12:56:45;1.80;76.30
68485;DHT22;55472;50.060;21.960;2022-11-20T13:08:11;1.20;79.20
68485;DHT22;55472;50.060;21.960;2022-11-20T13:11:37;1.20;79.30
68485;DHT22;55472;50.060;21.960;2022-11-20T13:14:03;1.10;79.40
68485;DHT22;55472;50.060;21.960;2022-11-20T13:16:46;1.10;79.40
68485;DHT22;55472;50.060;21.960;2022-11-20T13:19:32;1.00;79.90
68485;DHT22;55472;50.060;21.960;2022-11-20T13:21:58;0.90;80.10
68485;DHT22;55472;50.060;21.960;2022-11-20T13:24:34;0.80;80.40
68485;DHT22;55472;50.060;21.960;2022-11-20T13:29:43;0.70;81.40
68485;DHT22;55472;50.060;21.960;2022-11-20T13:34:39;0.60;82.30
68485;DHT22;55472;50.060;21.960;2022-11-20T13:37:05;0.50;82.70
68485;DHT22;55472;50.060;21.960;2022-11-20T13:39:48;0.40;82.70
68485;DHT22;55472;50.060;21.960;2022-11-20T13:44:51;0.20;83.60
68485;DHT22;55472;50.060;21.960;2022-11-20T13:47:28;0.10;84.20
68485;DHT22;55472;50.060;21.960;2022-11-20T13:49:58;0.00;85.10
68485;DHT22;55472;50.060;21.960;2022-11-20T13:56:21;0.00;86.30
68485;DHT22;55472;50.060;21.960;2022-11-20T13:58:43;0.00;85.70
68485;DHT22;55472;50.060;21.960;2022-11-20T14:01:29;-0.10;86.40
68485;DHT22;55472;50.060;21.960;2022-11-20T14:03:57;-0.20;85.90
68485;DHT22;55472;50.060;21.960;2022-11-20T14:06:27;-0.40;86.60
68485;DHT22;55472;50.060;21.960;2022-11-20T14:08:55;-0.40;87.00
68485;DHT22;55472;50.060;21.960;2022-11-20T14:11:31;-0.50;87.70
68485;DHT22;55472;50.060;21.960;2022-11-20T14:14:21;-0.60;88.00
68485;DHT22;55472;50.060;21.960;2022-11-20T14:16:49;-0.70;88.70
68485;DHT22;55472;50.060;21.960;2022-11-20T14:19:25;-0.80;89.10
68485;DHT22;55472;50.060;21.960;2022-11-20T14:24:39;-0.90;89.70
68485;DHT22;55472;50.060;21.960;2022-11-20T14:27:20;-0.90;90.00
68485;DHT22;55472;50.060;21.960;2022-11-20T14:29:49;-1.00;91.00
68485;DHT22;55472;50.060;21.960;2022-11-20T14:32:17;-1.00;90.90
68485;DHT22;55472;50.060;21.960;2022-11-20T14:34:47;-1.00;91.00
68485;DHT22;55472;50.060;21.960;2022-11-20T14:37:24;-1.00;91.30
68485;DHT22;55472;50.060;21.960;2022-11-20T14:39:54;-1.10;91.30
68485;DHT22;55472;50.060;21.960;2022-11-20T14:42:23;-1.10;92.10
68485;DHT22;55472;50.060;21.960;2022-11-20T14:44:54;-1.10;92.20
68485;DHT22;55472;50.060;21.960;2022-11-20T14:47:24;-1.20;92.30
68485;DHT22;55472;50.060;21.960;2022-11-20T14:49:52;-1.20;92.70
68485;DHT22;55472;50.060;21.960;2022-11-20T14:52:24;-1.20;92.70
68485;DHT22;55472;50.060;21.960;2022-11-20T14:54:57;-1.20;92.70
68485;DHT22;55472;50.060;21.960;2022-11-20T14:57:28;-1.30;92.90
68485;DHT22;55472;50.060;21.960;2022-11-20T15:02:45;-1.30;93.30
68485;DHT22;55472;50.060;21.960;2022-11-20T15:05:13;-1.30;93.60
68485;DHT22;55472;50.060;21.960;2022-11-20T15:07:42;-1.30;93.60
68485;DHT22;55472;50.060;21.960;2022-11-20T15:10:25;-1.30;93.40
68485;DHT22;55472;50.060;21.960;2022-11-20T15:12:53;-1.40;93.70
68485;DHT22;55472;50.060;21.960;2022-11-20T15:18:16;-1.40;93.90
68485;DHT22;55472;50.060;21.960;2022-11-20T15:20:44;-1.40;94.10
68485;DHT22;55472;50.060;21.960;2022-11-20T15:23:12;-1.40;94.00
68485;DHT22;55472;50.060;21.960;2022-11-20T15:25:40;-1.30;94.00
68485;DHT22;55472;50.060;21.960;2022-11-20T15:28:31;-1.40;93.90
68485;DHT22;55472;50.060;21.960;2022-11-20T15:30:57;-1.30;94.10
68485;DHT22;55472;50.060;21.960;2022-11-20T15:33:24;-1.30;94.40
68485;DHT22;55472;50.060;21.960;2022-11-20T15:35:50;-1.30;94.40
68485;DHT22;55472;50.060;21.960;2022-11-20T15:38:16;-1.20;94.10
68485;DHT22;55472;50.060;21.960;2022-11-20T15:40:42;-1.30;94.10
68485;DHT22;55472;50.060;21.960;2022-11-20T15:43:08;-1.30;93.90
68485;DHT22;55472;50.060;21.960;2022-11-20T15:45:45;-1.20;94.10
68485;DHT22;55472;50.060;21.960;2022-11-20T15:48:21;-1.30;93.90
68485;DHT22;55472;50.060;21.960;2022-11-20T15:53:59;-1.30;94.30
68485;DHT22;55472;50.060;21.960;2022-11-20T15:56:26;-1.30;94.30
68485;DHT22;55472;50.060;21.960;2022-11-20T15:58:52;-1.30;94.20
68485;DHT22;55472;50.060;21.960;2022-11-20T16:01:20;-1.40;94.20
68485;DHT22;55472;50.060;21.960;2022-11-20T16:03:47;-1.40;94.30
68485;DHT22;55472;50.060;21.960;2022-11-20T16:06:14;-1.40;94.30
68485;DHT22;55472;50.060;21.960;2022-11-20T16:08:41;-1.50;94.10
68485;DHT22;55472;50.060;21.960;2022-11-20T16:11:11;-1.50;94.10
68485;DHT22;55472;50.060;21.960;2022-11-20T16:13:39;-1.60;93.80
68485;DHT22;55472;50.060;21.960;2022-11-20T16:16:33;-1.60;94.00
68485;DHT22;55472;50.060;21.960;2022-11-20T16:19:00;-1.70;93.70
68485;DHT22;55472;50.060;21.960;2022-11-20T16:21:27;-1.80;93.90
68485;DHT22;55472;50.060;21.960;2022-11-20T16:24:04;-1.90;94.30
68485;DHT22;55472;50.060;21.960;2022-11-20T16:26:32;-1.90;94.70
68485;DHT22;55472;50.060;21.960;2022-11-20T16:28:59;-2.00;95.10
68485;DHT22;55472;50.060;21.960;2022-11-20T16:31:26;-1.90;95.40
68485;DHT22;55472;50.060;21.960;2022-11-20T16:33:53;-2.00;95.50
68485;DHT22;55472;50.060;21.960;2022-11-20T16:36:22;-1.90;95.50
68485;DHT22;55472;50.060;21.960;2022-11-20T16:38:54;-1.90;95.60
68485;DHT22;55472;50.060;21.960;2022-11-20T16:41:21;-1.90;95.60
68485;DHT22;55472;50.060;21.960;2022-11-20T16:43:53;-1.90;95.60
68485;DHT22;55472;50.060;21.960;2022-11-20T16:46:24;-1.80;95.70
68485;DHT22;55472;50.060;21.960;2022-11-20T16:48:56;-1.80;95.70
68485;DHT22;55472;50.060;21.960;2022-11-20T16:51:24;-1.80;95.60
68485;DHT22;55472;50.060;21.960;2022-11-20T16:53:51;-1.80;95.80
68485;DHT22;55472;50.060;21.960;2022-11-20T16:56:20;-1.80;96.00
68485;DHT22;55472;50.060;21.960;2022-11-20T16:58:48;-1.80;96.00
68485;DHT22;55472;50.060;21.960;2022-11-20T17:01:20;-1.80;96.20
68485;DHT22;55472;50.060;21.960;2022-11-20T17:03:53;-1.70;96.40
68485;DHT22;55472;50.060;21.960;2022-11-20T17:06:22;-1.80;96.20
68485;DHT22;55472;50.060;21.960;2022-11-20T17:08:50;-1.70;96.50
68485;DHT22;55472;50.060;21.960;2022-11-20T17:11:18;-1.70;96.50
68485;DHT22;55472;50.060;21.960;2022-11-20T17:13:45;-1.80;96.80
68485;DHT22;55472;50.060;21.960;2022-11-20T17:16:19;-1.70;97.00
68485;DHT22;55472;50.060;21.960;2022-11-20T17:18:46;-1.70;97.00
68485;DHT22;55472;50.060;21.960;2022-11-20T17:21:18;-1.60;97.00
68485;DHT22;55472;50.060;21.960;2022-11-20T17:23:44;-1.70;96.90
68485;DHT22;55472;50.060;21.960;2022-11-20T17:26:14;-1.60;96.70
68485;DHT22;55472;50.060;21.960;2022-11-20T17:28:43;-1.70;96.70
68485;DHT22;55472;50.060;21.960;2022-11-20T17:31:12;-1.70;97.00
68485;DHT22;55472;50.060;21.960;2022-11-20T17:33:40;-1.70;97.20
68485;DHT22;55472;50.060;21.960;2022-11-20T17:36:09;-1.60;97.30
68485;DHT22;55472;50.060;21.960;2022-11-20T17:38:36;-1.60;97.40
68485;DHT22;55472;50.060;21.960;2022-11-20T17:41:06;-1.60;97.50
68485;DHT22;55472;50.060;21.960;2022-11-20T17:43:34;-1.60;97.50
68485;DHT22;55472;50.060;21.960;2022-11-20T17:46:15;-1.50;97.80
68485;DHT22;55472;50.060;21.960;2022-11-20T17:48:43;-1.50;97.90
68485;DHT22;55472;50.060;21.960;2022-11-20T17:51:17;-1.50;98.00
68485;DHT22;55472;50.060;21.960;2022-11-20T17:53:46;-1.40;98.00
68485;DHT22;55472;50.060;21.960;2022-11-20T17:56:14;-1.40;98.00
68485;DHT22;55472;50.060;21.960;2022-11-20T17:58:59;-1.40;98.10
68485;DHT22;55472;50.060;21.960;2022-11-20T18:01:26;-1.40;98.50
68485;DHT22;55472;50.060;21.960;2022-11-20T18:03:52;-1.40;98.60
68485;DHT22;55472;50.060;21.960;2022-11-20T18:06:21;-1.40;98.60
68485;DHT22;55472;50.060;21.960;2022-11-20T18:08:49;-1.40;98.70
68485;DHT22;55472;50.060;21.960;2022-11-20T18:11:18;-1.40;98.80
68485;DHT22;55472;50.060;21.960;2022-11-20T18:13:51;-1.50;98.70
68485;DHT22;55472;50.060;21.960;2022-11-20T18:16:50;-1.50;98.80
68485;DHT22;55472;50.060;21.960;2022-11-20T18:19:20;-1.50;98.70
68485;DHT22;55472;50.060;21.960;2022-11-20T18:21:50;-1.60;98.90
68485;DHT22;55472;50.060;21.960;2022-11-20T18:24:16;-1.70;99.10
68485;DHT22;55472;50.060;21.960;2022-11-20T18:26:43;-1.80;99.20
68485;DHT22;55472;50.060;21.960;2022-11-20T18:29:09;-1.80;99.20
68485;DHT22;55472;50.060;21.960;2022-11-20T18:31:36;-1.80;99.20
68485;DHT22;55472;50.060;21.960;2022-11-20T18:34:02;-1.80;99.10
68485;DHT22;55472;50.060;21.960;2022-11-20T18:36:29;-1.80;98.90
68485;DHT22;55472;50.060;21.960;2022-11-20T18:38:57;-1.80;98.50
68485;DHT22;55472;50.060;21.960;2022-11-20T18:41:26;-1.80;98.30
68485;DHT22;55472;50.060;21.960;2022-11-20T18:44:18;-1.90;98.10
68485;DHT22;55472;50.060;21.960;2022-11-20T18:47:05;-1.90;98.30
68485;DHT22;55472;50.060;21.960;2022-11-20T18:49:32;-1.90;98.30
68485;DHT22;55472;50.060;21.960;2022-11-20T18:51:58;-1.90;98.50
68485;DHT22;55472;50.060;21.960;2022-11-20T18:54:24;-1.90;98.80
68485;DHT22;55472;50.060;21.960;2022-11-20T18:56:50;-1.90;99.10
68485;DHT22;55472;50.060;21.960;2022-11-20T18:59:17;-1.80;99.10
68485;DHT22;55472;50.060;21.960;2022-11-20T19:01:45;-1.80;98.90
68485;DHT22;55472;50.060;21.960;2022-11-20T19:04:13;-1.80;98.80
68485;DHT22;55472;50.060;21.960;2022-11-20T19:06:41;-1.80;98.90
68485;DHT22;55472;50.060;21.960;2022-11-20T19:09:11;-1.70;98.80
68485;DHT22;55472;50.060;21.960;2022-11-20T19:11:38;-1.70;98.80
68485;DHT22;55472;50.060;21.960;2022-11-20T19:14:05;-1.70;98.70
68485;DHT22;55472;50.060;21.960;2022-11-20T19:16:32;-1.70;98.70
68485;DHT22;55472;50.060;21.960;2022-11-20T19:18:59;-1.60;98.70